createdAt,value
2018-10-02T00:00:33.582Z,8.30
2018-10-02T00:01:33.597Z,8.30
2018-10-02T00:02:33.605Z,10.60
2018-10-02T00:03:33.845Z,9.50
2018-10-02T00:04:33.631Z,8.20
2018-10-02T00:05:33.639Z,8.40
2018-10-02T00:06:33.656Z,10.30
2018-10-02T00:07:34.018Z,10.80
2018-10-02T00:08:33.679Z,10.70
2018-10-02T00:09:33.712Z,8.60
2018-10-02T00:10:33.735Z,8.90
2018-10-02T00:11:33.718Z,9.30
2018-10-02T00:12:33.738Z,8.00
2018-10-02T00:13:33.741Z,8.40
2018-10-02T00:14:33.746Z,10.70
2018-10-02T00:15:33.768Z,11.30
2018-10-02T00:16:33.771Z,9.70
2018-10-02T00:17:33.793Z,11.20
2018-10-02T00:18:33.799Z,8.90
2018-10-02T00:19:33.809Z,10.10
2018-10-02T00:20:33.854Z,9.50
2018-10-02T00:22:34.552Z,12.50
2018-10-02T00:23:34.512Z,10.80
2018-10-02T00:24:34.537Z,9.10
2018-10-02T00:25:33.879Z,10.00
2018-10-02T00:26:33.903Z,8.50
2018-10-02T00:27:33.908Z,9.30
2018-10-02T00:28:33.921Z,9.60
2018-10-02T00:29:33.936Z,9.30
2018-10-02T00:30:33.975Z,11.70
2018-10-02T00:31:34.111Z,12.60
2018-10-02T00:32:33.969Z,9.30
2018-10-02T00:33:34.009Z,9.40
2018-10-02T00:34:33.997Z,11.40
2018-10-02T00:35:34.004Z,9.60
2018-10-02T00:36:34.025Z,9.70
2018-10-02T00:37:34.026Z,11.40
2018-10-02T00:38:34.043Z,11.70
2018-10-02T00:39:34.052Z,12.00
2018-10-02T00:40:34.066Z,9.80
2018-10-02T00:41:34.379Z,9.20
2018-10-02T00:42:34.117Z,8.90
2018-10-02T00:43:34.118Z,8.80
2018-10-02T00:44:34.154Z,7.70
2018-10-02T00:45:34.126Z,8.40
2018-10-02T00:46:34.146Z,10.20
2018-10-02T00:47:34.151Z,9.70
2018-10-02T00:48:34.162Z,11.50
2018-10-02T00:49:34.196Z,8.30
2018-10-02T00:50:34.199Z,10.00
2018-10-02T00:51:34.306Z,10.30
2018-10-02T00:52:34.612Z,8.10
2018-10-02T00:54:34.785Z,10.70
2018-10-02T00:55:35.258Z,9.70
2018-10-02T00:56:34.263Z,10.60
2018-10-02T00:57:34.279Z,11.70
2018-10-02T00:58:34.304Z,11.70
2018-10-02T00:59:34.337Z,9.90
2018-10-02T01:00:34.305Z,12.00
2018-10-02T01:01:34.316Z,8.10
2018-10-02T01:02:34.330Z,8.40
2018-10-02T01:03:34.349Z,10.90
2018-10-02T01:04:34.360Z,11.10
2018-10-02T01:05:34.379Z,8.50
2018-10-02T01:06:34.378Z,12.10
2018-10-02T01:07:34.389Z,9.20
2018-10-02T01:08:34.404Z,12.00
2018-10-02T01:09:34.414Z,7.30
2018-10-02T01:10:34.434Z,10.40
2018-10-02T01:11:34.445Z,11.30
2018-10-02T01:12:34.483Z,10.80
2018-10-02T01:13:34.462Z,9.30
2018-10-02T01:14:34.474Z,9.00
2018-10-02T01:15:34.549Z,9.60
2018-10-02T01:17:34.515Z,9.00
2018-10-02T01:18:34.533Z,9.80
2018-10-02T01:19:34.551Z,10.00
2018-10-02T01:20:34.603Z,9.80
2018-10-02T01:21:34.562Z,13.10
2018-10-02T01:22:34.584Z,10.80
2018-10-02T01:23:34.589Z,10.20
2018-10-02T01:24:34.603Z,11.40
2018-10-02T01:25:34.771Z,10.10
2018-10-02T01:26:35.057Z,11.70
2018-10-02T01:27:34.797Z,10.80
2018-10-02T01:28:34.653Z,13.10
2018-10-02T01:29:34.679Z,11.60
2018-10-02T01:30:34.704Z,9.00
2018-10-02T01:31:34.691Z,9.70
2018-10-02T01:32:34.695Z,9.20
2018-10-02T01:33:34.746Z,12.00
2018-10-02T01:34:34.722Z,10.80
2018-10-02T01:35:34.754Z,12.10
2018-10-02T01:36:34.757Z,10.30
2018-10-02T01:37:34.757Z,11.10
2018-10-02T01:38:34.784Z,10.30
2018-10-02T01:39:34.782Z,13.70
2018-10-02T01:40:34.800Z,8.60
2018-10-02T01:42:34.826Z,10.90
2018-10-02T01:43:34.851Z,12.40
2018-10-02T01:44:34.842Z,9.70
2018-10-02T01:45:34.854Z,13.50
2018-10-02T01:46:34.873Z,10.80
2018-10-02T01:47:34.880Z,12.50
2018-10-02T01:48:34.913Z,8.80
2018-10-02T01:49:34.904Z,16.60
2018-10-02T01:50:34.929Z,11.60
2018-10-02T01:51:34.947Z,9.50
2018-10-02T01:52:34.952Z,9.30
2018-10-02T01:53:34.954Z,9.30
2018-10-02T01:54:34.966Z,11.90
2018-10-02T01:55:34.979Z,8.40
2018-10-02T01:58:35.641Z,13.70
2018-10-02T01:59:35.585Z,9.20
2018-10-02T02:00:35.039Z,10.00
2018-10-02T02:01:35.066Z,8.90
2018-10-02T02:02:35.076Z,11.60
2018-10-02T02:03:35.091Z,11.00
2018-10-02T02:04:35.093Z,11.00
2018-10-02T02:05:35.105Z,8.00
2018-10-02T02:06:35.115Z,11.30
2018-10-02T02:07:35.153Z,11.20
2018-10-02T02:08:35.155Z,13.00
2018-10-02T02:09:35.162Z,13.10
2018-10-02T02:10:35.164Z,10.30
2018-10-02T02:11:35.191Z,9.90
2018-10-02T02:12:35.228Z,12.00
2018-10-02T02:13:35.229Z,11.90
2018-10-02T02:14:35.214Z,14.40
2018-10-02T02:15:35.233Z,11.60
2018-10-02T02:16:35.240Z,11.00
2018-10-02T02:17:35.272Z,10.20
2018-10-02T02:18:35.265Z,8.90
2018-10-02T02:19:35.293Z,13.20
2018-10-02T02:20:35.327Z,13.30
2018-10-02T02:21:35.304Z,10.70
2018-10-02T02:22:35.514Z,8.60
2018-10-02T02:23:35.337Z,9.30
2018-10-02T02:24:35.341Z,13.20
2018-10-02T02:25:35.352Z,10.70
2018-10-02T02:26:35.376Z,10.80
2018-10-02T02:29:35.503Z,9.80
2018-10-02T02:30:35.813Z,8.90
2018-10-02T02:31:35.815Z,9.10
2018-10-02T02:32:35.445Z,10.80
2018-10-02T02:33:35.474Z,10.10
2018-10-02T02:34:35.467Z,10.50
2018-10-02T02:35:35.483Z,10.20
2018-10-02T02:36:35.504Z,9.60
2018-10-02T02:37:35.523Z,8.90
2018-10-02T02:38:35.517Z,11.70
2018-10-02T02:39:35.528Z,8.60
2018-10-02T02:40:35.541Z,12.90
2018-10-02T02:41:35.555Z,9.60
2018-10-02T02:42:35.583Z,10.80
2018-10-02T02:43:35.584Z,10.60
2018-10-02T02:44:35.590Z,9.10
2018-10-02T02:45:35.608Z,9.00
2018-10-02T02:46:35.620Z,9.70
2018-10-02T02:47:35.639Z,10.90
2018-10-02T02:48:35.638Z,9.20
2018-10-02T02:49:35.679Z,10.10
2018-10-02T02:50:35.752Z,8.80
2018-10-02T02:51:35.677Z,9.00
2018-10-02T02:52:35.736Z,9.60
2018-10-02T02:53:35.860Z,9.00
2018-10-02T02:54:35.728Z,10.30
2018-10-02T02:55:35.750Z,9.80
2018-10-02T02:56:35.976Z,9.80
2018-10-02T02:57:35.784Z,9.40
2018-10-02T02:58:35.770Z,11.90
2018-10-02T02:59:35.886Z,10.80
2018-10-02T03:00:35.916Z,8.80
2018-10-02T03:01:36.109Z,7.80
2018-10-02T03:02:35.975Z,8.10
2018-10-02T03:03:36.358Z,9.10
2018-10-02T03:04:36.714Z,7.00
2018-10-02T03:05:36.575Z,11.00
2018-10-02T03:06:35.865Z,10.30
2018-10-02T03:07:35.886Z,11.50
2018-10-02T03:08:35.892Z,8.70
2018-10-02T03:09:35.907Z,7.90
2018-10-02T03:10:35.915Z,7.90
2018-10-02T03:11:35.927Z,7.00
2018-10-02T03:12:35.952Z,9.60
2018-10-02T03:13:36.005Z,10.90
2018-10-02T03:14:35.965Z,9.80
2018-10-02T03:15:36.004Z,11.00
2018-10-02T03:16:35.994Z,8.40
2018-10-02T03:17:36.361Z,7.10
2018-10-02T03:18:36.019Z,12.20
2018-10-02T03:19:36.043Z,8.20
2018-10-02T03:20:36.042Z,9.10
2018-10-02T03:21:36.119Z,6.50
2018-10-02T03:22:36.077Z,9.50
2018-10-02T03:23:36.081Z,9.10
2018-10-02T03:24:36.092Z,8.30
2018-10-02T03:25:36.310Z,11.30
2018-10-02T03:26:36.120Z,7.80
2018-10-02T03:27:36.134Z,12.80
2018-10-02T03:28:36.142Z,10.00
2018-10-02T03:29:36.154Z,8.50
2018-10-02T03:30:36.171Z,8.40
2018-10-02T03:31:36.216Z,8.70
2018-10-02T03:32:36.197Z,8.40
2018-10-02T03:35:36.582Z,10.20
2018-10-02T03:36:36.241Z,9.80
2018-10-02T03:37:36.261Z,10.70
2018-10-02T03:38:36.341Z,12.70
2018-10-02T03:39:36.283Z,8.90
2018-10-02T03:40:36.297Z,5.70
2018-10-02T03:41:36.329Z,7.60
2018-10-02T03:42:36.324Z,12.00
2018-10-02T03:43:36.398Z,11.20
2018-10-02T03:44:36.376Z,6.70
2018-10-02T03:45:36.358Z,11.80
2018-10-02T03:46:36.674Z,8.10
2018-10-02T03:47:36.385Z,9.50
2018-10-02T03:48:36.414Z,11.10
2018-10-02T03:49:36.427Z,7.70
2018-10-02T03:50:36.414Z,8.10
2018-10-02T03:51:36.427Z,8.80
2018-10-02T03:52:36.452Z,10.00
2018-10-02T03:53:36.451Z,12.80
2018-10-02T03:54:36.469Z,9.20
2018-10-02T03:55:36.487Z,10.00
2018-10-02T03:56:36.492Z,8.30
2018-10-02T03:57:36.515Z,8.80
2018-10-02T03:58:36.526Z,9.90
2018-10-02T03:59:36.527Z,8.50
2018-10-02T04:00:36.542Z,7.30
2018-10-02T04:01:36.556Z,8.70
2018-10-02T04:02:36.590Z,10.10
2018-10-02T04:03:36.760Z,11.00
2018-10-02T04:04:36.604Z,8.50
2018-10-02T04:05:36.619Z,11.10
2018-10-02T04:06:36.672Z,9.10
2018-10-02T04:09:36.653Z,9.70
2018-10-02T04:10:36.674Z,7.90
2018-10-02T04:11:36.680Z,11.20
2018-10-02T04:12:36.764Z,11.70
2018-10-02T04:13:36.706Z,10.20
2018-10-02T04:14:36.716Z,10.20
2018-10-02T04:15:36.742Z,10.60
2018-10-02T04:16:36.751Z,11.20
2018-10-02T04:17:36.771Z,12.60
2018-10-02T04:18:36.822Z,11.90
2018-10-02T04:19:36.780Z,9.70
2018-10-02T04:20:36.998Z,11.50
2018-10-02T04:21:36.808Z,7.80
2018-10-02T04:22:36.829Z,11.70
2018-10-02T04:23:36.831Z,12.90
2018-10-02T04:24:36.859Z,13.20
2018-10-02T04:25:36.855Z,10.80
2018-10-02T04:26:36.882Z,12.90
2018-10-02T04:27:36.901Z,14.90
2018-10-02T04:28:36.904Z,11.20
2018-10-02T04:29:37.148Z,14.40
2018-10-02T04:30:36.923Z,14.10
2018-10-02T04:31:36.948Z,12.80
2018-10-02T04:32:36.949Z,18.50
2018-10-02T04:33:37.028Z,9.50
2018-10-02T04:34:36.971Z,13.80
2018-10-02T04:35:36.994Z,13.50
2018-10-02T04:36:37.013Z,12.30
2018-10-02T04:37:37.022Z,12.70
2018-10-02T04:38:37.021Z,10.40
2018-10-02T04:39:37.144Z,13.20
2018-10-02T04:40:37.053Z,13.40
2018-10-02T04:41:37.061Z,10.80
2018-10-02T04:42:37.235Z,11.60
2018-10-02T04:43:37.085Z,13.30
2018-10-02T04:44:37.096Z,11.40
2018-10-02T04:45:37.415Z,14.30
2018-10-02T04:46:37.265Z,10.80
2018-10-02T04:47:37.140Z,11.90
2018-10-02T04:48:37.150Z,11.60
2018-10-02T04:49:37.165Z,10.30
2018-10-02T04:50:37.201Z,11.50
2018-10-02T04:51:37.188Z,11.70
2018-10-02T04:52:37.278Z,13.10
2018-10-02T04:53:37.215Z,9.70
2018-10-02T04:54:37.236Z,10.30
2018-10-02T04:55:37.613Z,10.60
2018-10-02T04:56:37.289Z,9.70
2018-10-02T04:57:37.293Z,12.20
2018-10-02T04:58:37.470Z,11.90
2018-10-02T04:59:37.290Z,11.00
2018-10-02T05:00:37.362Z,14.30
2018-10-02T05:01:37.329Z,12.10
2018-10-02T05:02:37.352Z,15.60
2018-10-02T05:03:37.362Z,13.50
2018-10-02T05:04:37.397Z,12.40
2018-10-02T05:05:37.370Z,10.70
2018-10-02T05:06:37.382Z,12.40
2018-10-02T05:07:37.393Z,10.80
2018-10-02T05:08:38.493Z,12.60
2018-10-02T05:09:37.597Z,14.60
2018-10-02T05:10:37.656Z,13.60
2018-10-02T05:11:37.450Z,12.40
2018-10-02T05:12:37.512Z,12.80
2018-10-02T05:13:37.470Z,11.90
2018-10-02T05:14:37.647Z,13.90
2018-10-02T05:15:37.613Z,11.60
2018-10-02T05:16:37.507Z,9.70
2018-10-02T05:17:37.536Z,11.90
2018-10-02T05:18:37.532Z,12.00
2018-10-02T05:19:37.550Z,11.10
2018-10-02T05:20:37.602Z,12.00
2018-10-02T05:21:37.580Z,12.50
2018-10-02T05:22:37.886Z,12.40
2018-10-02T05:23:37.604Z,12.20
2018-10-02T05:24:37.677Z,10.10
2018-10-02T05:25:37.645Z,14.80
2018-10-02T05:26:37.636Z,13.80
2018-10-02T05:27:37.657Z,12.90
2018-10-02T05:28:37.661Z,15.00
2018-10-02T05:29:37.679Z,13.70
2018-10-02T05:30:38.315Z,12.70
2018-10-02T05:31:37.731Z,11.20
2018-10-02T05:32:37.741Z,14.10
2018-10-02T05:33:37.742Z,11.20
2018-10-02T05:34:37.737Z,16.90
2018-10-02T05:35:37.957Z,12.50
2018-10-02T05:36:38.215Z,13.50
2018-10-02T05:37:37.777Z,11.70
2018-10-02T05:38:37.797Z,13.50
2018-10-02T05:39:37.958Z,11.70
2018-10-02T05:40:37.833Z,12.80
2018-10-02T05:42:37.935Z,12.80
2018-10-02T05:43:37.852Z,12.00
2018-10-02T05:44:37.869Z,13.90
2018-10-02T05:45:37.938Z,11.90
2018-10-02T05:46:38.022Z,13.40
2018-10-02T05:47:37.979Z,15.00
2018-10-02T05:48:38.161Z,15.00
2018-10-02T05:49:37.997Z,13.30
2018-10-02T05:50:37.967Z,13.60
2018-10-02T05:51:37.978Z,14.90
2018-10-02T05:52:37.978Z,12.80
2018-10-02T05:53:37.979Z,14.80
2018-10-02T05:54:37.992Z,15.50
2018-10-02T05:55:38.024Z,15.00
2018-10-02T05:56:38.028Z,13.90
2018-10-02T05:57:38.032Z,13.40
2018-10-02T05:59:38.061Z,12.50
2018-10-02T06:00:38.088Z,13.10
2018-10-02T06:01:38.193Z,12.90
2018-10-02T06:02:38.091Z,12.90
2018-10-02T06:03:38.176Z,12.00
2018-10-02T06:04:38.200Z,11.30
2018-10-02T06:05:38.133Z,12.50
2018-10-02T06:06:38.397Z,13.20
2018-10-02T06:07:38.189Z,15.30
2018-10-02T06:08:38.172Z,13.30
2018-10-02T06:09:38.596Z,11.90
2018-10-02T06:10:38.252Z,14.90
2018-10-02T06:11:38.392Z,13.60
2018-10-02T06:12:39.084Z,13.60
2018-10-02T06:13:38.354Z,13.90
2018-10-02T06:14:38.484Z,13.10
2018-10-02T06:15:38.376Z,13.50
2018-10-02T06:16:38.515Z,14.40
2018-10-02T06:17:38.339Z,12.90
2018-10-02T06:18:38.355Z,16.60
2018-10-02T06:19:38.369Z,11.30
2018-10-02T06:20:40.118Z,9.20
2018-10-02T06:21:38.354Z,11.80
2018-10-02T06:22:38.478Z,11.20
2018-10-02T06:23:38.363Z,10.70
2018-10-02T06:24:38.507Z,13.90
2018-10-02T06:25:38.496Z,12.00
2018-10-02T06:26:38.408Z,13.30
2018-10-02T06:27:38.419Z,11.00
2018-10-02T06:28:38.461Z,11.30
2018-10-02T06:29:38.456Z,13.10
2018-10-02T06:30:38.734Z,10.40
2018-10-02T06:31:38.554Z,13.60
2018-10-02T06:32:38.655Z,11.60
2018-10-02T06:33:38.672Z,13.40
2018-10-02T06:34:38.611Z,12.40
2018-10-02T06:35:38.515Z,13.60
2018-10-02T06:36:38.550Z,13.30
2018-10-02T06:38:38.856Z,13.50
2018-10-02T06:39:39.688Z,13.30
2018-10-02T06:40:38.583Z,13.90
2018-10-02T06:41:38.611Z,13.70
2018-10-02T06:44:38.782Z,16.80
2018-10-02T06:45:38.706Z,14.10
2018-10-02T06:46:38.652Z,11.60
2018-10-02T06:47:38.990Z,14.00
2018-10-02T06:48:38.685Z,11.10
2018-10-02T06:49:38.699Z,13.90
2018-10-02T06:50:38.813Z,12.60
2018-10-02T06:51:38.802Z,12.80
2018-10-02T06:52:39.035Z,12.50
2018-10-02T06:53:38.787Z,13.70
2018-10-02T06:54:40.494Z,11.00
2018-10-02T06:55:38.773Z,11.80
2018-10-02T06:56:39.814Z,14.00
2018-10-02T06:57:38.903Z,12.80
2018-10-02T06:58:38.806Z,12.50
2018-10-02T06:59:38.922Z,14.70
2018-10-02T07:00:38.933Z,14.30
2018-10-02T07:01:38.847Z,12.90
2018-10-02T07:02:38.913Z,11.80
2018-10-02T07:04:38.894Z,16.70
2018-10-02T07:05:39.111Z,13.30
2018-10-02T07:06:39.039Z,11.60
2018-10-02T07:07:38.963Z,10.90
2018-10-02T07:08:39.046Z,12.90
2018-10-02T07:09:38.966Z,12.10
2018-10-02T07:10:38.981Z,13.50
2018-10-02T07:11:39.056Z,14.10
2018-10-02T07:13:39.002Z,16.80
2018-10-02T07:15:39.044Z,13.70
2018-10-02T07:16:39.037Z,15.20
2018-10-02T07:17:39.199Z,12.80
2018-10-02T07:18:39.088Z,13.40
2018-10-02T07:19:39.097Z,13.50
2018-10-02T07:20:39.120Z,14.50
2018-10-02T07:21:39.100Z,10.30
2018-10-02T07:22:39.113Z,10.80
2018-10-02T07:23:39.126Z,11.60
2018-10-02T07:24:39.197Z,10.90
2018-10-02T07:25:39.167Z,11.50
2018-10-02T07:26:39.271Z,12.20
2018-10-02T07:27:39.317Z,12.10
2018-10-02T07:28:39.189Z,16.50
2018-10-02T07:29:39.203Z,13.20
2018-10-02T07:30:39.308Z,13.00
2018-10-02T07:31:39.232Z,8.70
2018-10-02T07:32:39.297Z,10.60
2018-10-02T07:33:39.251Z,18.20
2018-10-02T07:34:39.550Z,11.10
2018-10-02T07:35:39.591Z,11.20
2018-10-02T07:36:39.352Z,14.60
2018-10-02T07:37:39.304Z,16.30
2018-10-02T07:38:39.383Z,12.70
2018-10-02T07:39:39.341Z,13.10
2018-10-02T07:40:39.846Z,13.20
2018-10-02T07:41:39.466Z,13.70
2018-10-02T07:42:39.365Z,11.50
2018-10-02T07:43:39.382Z,11.90
2018-10-02T07:44:39.500Z,12.40
2018-10-02T07:45:39.403Z,12.80
2018-10-02T07:46:39.447Z,11.30
2018-10-02T07:47:39.484Z,13.30
2018-10-02T07:48:39.450Z,13.10
2018-10-02T07:49:39.680Z,11.80
2018-10-02T07:50:39.561Z,10.90
2018-10-02T07:51:39.484Z,15.80
2018-10-02T07:52:39.650Z,14.20
2018-10-02T07:53:39.614Z,13.00
2018-10-02T07:54:39.523Z,10.90
2018-10-02T07:55:39.614Z,14.60
2018-10-02T07:56:39.658Z,13.30
2018-10-02T07:57:39.561Z,11.30
2018-10-02T07:58:39.585Z,9.40
2018-10-02T07:59:39.673Z,13.90
2018-10-02T08:00:39.619Z,12.00
2018-10-02T08:01:39.631Z,11.30
2018-10-02T08:02:39.663Z,11.40
2018-10-02T08:03:39.673Z,12.90
2018-10-02T08:04:39.719Z,12.30
2018-10-02T08:05:39.673Z,10.10
2018-10-02T08:06:39.677Z,12.60
2018-10-02T08:07:39.694Z,14.10
2018-10-02T08:08:39.866Z,12.60
2018-10-02T08:09:39.727Z,12.30
2018-10-02T08:10:39.845Z,11.70
2018-10-02T08:11:39.826Z,15.30
2018-10-02T08:12:39.757Z,12.00
2018-10-02T08:13:39.899Z,11.60
2018-10-02T08:14:39.813Z,11.30
2018-10-02T08:15:39.796Z,12.30
2018-10-02T08:16:39.811Z,12.50
2018-10-02T08:17:40.006Z,12.90
2018-10-02T08:18:39.833Z,11.90
2018-10-02T08:19:39.849Z,10.20
2018-10-02T08:20:39.948Z,11.40
2018-10-02T08:21:40.177Z,10.10
2018-10-02T08:22:39.959Z,10.30
2018-10-02T08:23:39.916Z,9.90
2018-10-02T08:24:40.215Z,10.70
2018-10-02T08:25:39.924Z,13.40
2018-10-02T08:26:40.009Z,8.70
2018-10-02T08:27:39.994Z,11.20
2018-10-02T08:28:40.004Z,11.30
2018-10-02T08:29:40.108Z,12.10
2018-10-02T08:30:40.005Z,11.70
2018-10-02T08:31:40.008Z,10.10
2018-10-02T08:32:40.032Z,9.10
2018-10-02T08:33:40.048Z,9.70
2018-10-02T08:34:40.056Z,9.30
2018-10-02T08:35:40.167Z,11.40
2018-10-02T08:36:40.220Z,9.00
2018-10-02T08:37:40.083Z,11.70
2018-10-02T08:38:40.239Z,9.00
2018-10-02T08:39:40.132Z,10.50
2018-10-02T08:40:40.121Z,11.60
2018-10-02T08:41:40.167Z,10.00
2018-10-02T08:42:40.147Z,14.50
2018-10-02T08:43:40.246Z,7.90
2018-10-02T08:44:40.278Z,8.80
2018-10-02T08:45:40.187Z,11.00
2018-10-02T08:46:40.204Z,10.50
2018-10-02T08:47:40.253Z,8.20
2018-10-02T08:48:40.225Z,8.50
2018-10-02T08:49:40.266Z,10.00
2018-10-02T08:50:40.435Z,9.70
2018-10-02T08:51:40.409Z,10.10
2018-10-02T08:52:40.273Z,11.10
2018-10-02T08:53:40.506Z,11.30
2018-10-02T08:54:40.311Z,10.00
2018-10-02T08:55:40.317Z,10.00
2018-10-02T08:56:40.325Z,8.90
2018-10-02T08:57:40.338Z,10.70
2018-10-02T08:58:40.353Z,10.00
2018-10-02T08:59:40.372Z,10.10
2018-10-02T09:00:40.404Z,12.10
2018-10-02T09:01:40.392Z,10.50
2018-10-02T09:02:40.415Z,10.80
2018-10-02T09:03:40.434Z,8.10
2018-10-02T09:04:40.433Z,9.60
2018-10-02T09:05:40.481Z,14.70
2018-10-02T09:06:40.603Z,9.50
2018-10-02T09:07:40.511Z,10.90
2018-10-02T09:08:40.630Z,9.80
2018-10-02T09:09:40.505Z,12.60
2018-10-02T09:10:40.683Z,10.80
2018-10-02T09:11:40.548Z,10.80
2018-10-02T09:12:40.662Z,10.00
2018-10-02T09:13:40.623Z,7.80
2018-10-02T09:14:40.906Z,9.60
2018-10-02T09:15:40.655Z,8.60
2018-10-02T09:16:40.716Z,9.80
2018-10-02T09:17:40.617Z,14.50
2018-10-02T09:18:40.677Z,12.30
2018-10-02T09:19:40.628Z,10.40
2018-10-02T09:20:40.669Z,10.20
2018-10-02T09:21:40.715Z,9.70
2018-10-02T09:22:40.751Z,9.50
2018-10-02T09:23:40.735Z,9.00
2018-10-02T09:24:42.112Z,13.10
2018-10-02T09:25:41.238Z,12.60
2018-10-02T09:26:40.724Z,11.00
2018-10-02T09:27:40.744Z,9.90
2018-10-02T09:28:40.977Z,12.40
2018-10-02T09:29:40.750Z,9.20
2018-10-02T09:30:40.813Z,14.10
2018-10-02T09:31:40.787Z,10.20
2018-10-02T09:32:40.799Z,13.70
2018-10-02T09:33:40.886Z,10.80
2018-10-02T09:34:40.814Z,12.20
2018-10-02T09:35:40.847Z,10.80
2018-10-02T09:36:40.913Z,9.80
2018-10-02T09:37:40.865Z,12.70
2018-10-02T09:38:40.868Z,9.90
2018-10-02T09:39:41.009Z,11.20
2018-10-02T09:40:40.904Z,11.20
2018-10-02T09:41:40.914Z,9.60
2018-10-02T09:42:41.007Z,10.30
2018-10-02T09:43:41.024Z,9.50
2018-10-02T09:44:40.944Z,11.80
2018-10-02T09:45:41.051Z,10.20
2018-10-02T09:46:40.970Z,11.80
2018-10-02T09:47:41.015Z,10.90
2018-10-02T09:48:41.648Z,13.80
2018-10-02T09:49:41.134Z,12.40
2018-10-02T09:50:41.131Z,12.50
2018-10-02T09:51:41.099Z,9.80
2018-10-02T09:52:41.047Z,12.20
2018-10-02T09:53:41.060Z,8.90
2018-10-02T09:54:41.112Z,8.00
2018-10-02T09:55:41.151Z,8.20
2018-10-02T09:56:41.192Z,13.20
2018-10-02T09:57:41.144Z,11.50
2018-10-02T09:58:41.218Z,11.60
2018-10-02T09:59:41.444Z,11.20
2018-10-02T10:00:41.191Z,7.30
2018-10-02T10:01:41.170Z,9.40
2018-10-02T10:02:41.262Z,9.40
2018-10-02T10:03:41.198Z,11.70
2018-10-02T10:04:41.232Z,9.40
2018-10-02T10:05:41.222Z,9.50
2018-10-02T10:06:41.306Z,11.60
2018-10-02T10:07:41.555Z,11.20
2018-10-02T10:08:41.256Z,10.60
2018-10-02T10:09:41.273Z,12.90
2018-10-02T10:10:41.328Z,11.20
2018-10-02T10:11:41.296Z,10.90
2018-10-02T10:12:41.310Z,12.90
2018-10-02T10:13:41.324Z,10.90
2018-10-02T10:14:41.498Z,8.90
2018-10-02T10:15:41.390Z,12.00
2018-10-02T10:16:41.439Z,11.50
2018-10-02T10:17:41.386Z,11.10
2018-10-02T10:18:41.389Z,10.10
2018-10-02T10:19:41.524Z,11.60
2018-10-02T10:20:41.457Z,11.00
2018-10-02T10:21:41.444Z,13.80
2018-10-02T10:22:41.781Z,9.50
2018-10-02T10:23:41.591Z,11.30
2018-10-02T10:24:41.483Z,12.10
2018-10-02T10:25:41.655Z,11.20
2018-10-02T10:26:41.613Z,10.20
2018-10-02T10:27:41.506Z,12.10
2018-10-02T10:28:41.745Z,13.30
2018-10-02T10:29:41.543Z,10.00
2018-10-02T10:30:41.563Z,10.50
2018-10-02T10:31:41.729Z,10.90
2018-10-02T10:32:41.623Z,9.90
2018-10-02T10:33:41.595Z,13.00
2018-10-02T10:34:41.720Z,10.20
2018-10-02T10:35:41.610Z,11.30
2018-10-02T10:36:41.837Z,11.20
2018-10-02T10:37:41.956Z,12.50
2018-10-02T10:38:41.675Z,13.60
2018-10-02T10:39:41.695Z,14.10
2018-10-02T10:40:41.933Z,11.10
2018-10-02T10:41:41.711Z,11.20
2018-10-02T10:42:41.700Z,12.60
2018-10-02T10:43:41.711Z,12.50
2018-10-02T10:44:41.724Z,17.20
2018-10-02T10:45:42.237Z,12.30
2018-10-02T10:46:41.756Z,13.90
2018-10-02T10:47:41.776Z,13.60
2018-10-02T10:48:41.789Z,12.80
2018-10-02T10:49:41.802Z,13.80
2018-10-02T10:50:41.805Z,14.50
2018-10-02T10:51:41.836Z,15.10
2018-10-02T10:52:41.924Z,12.90
2018-10-02T10:53:41.875Z,11.90
2018-10-02T10:54:41.869Z,11.70
2018-10-02T10:55:41.936Z,12.90
2018-10-02T10:56:41.896Z,11.80
2018-10-02T10:57:42.886Z,16.00
2018-10-02T10:58:41.942Z,14.80
2018-10-02T10:59:41.933Z,13.30
2018-10-02T11:00:41.955Z,16.60
2018-10-02T11:01:41.989Z,11.70
2018-10-02T11:02:41.989Z,12.20
2018-10-02T11:03:41.980Z,11.40
2018-10-02T11:04:42.110Z,11.60
2018-10-02T11:05:42.031Z,12.10
2018-10-02T11:06:42.066Z,13.30
2018-10-02T11:07:42.053Z,12.10
2018-10-02T11:08:42.056Z,11.90
2018-10-02T11:09:42.054Z,11.80
2018-10-02T11:10:42.131Z,12.10
2018-10-02T11:11:42.088Z,13.20
2018-10-02T11:12:42.116Z,11.00
2018-10-02T11:13:42.138Z,10.90
2018-10-02T11:14:42.133Z,11.30
2018-10-02T11:15:42.128Z,11.70
2018-10-02T11:16:42.144Z,13.60
2018-10-02T11:17:42.159Z,10.90
2018-10-02T11:18:42.171Z,11.50
2018-10-02T11:19:42.252Z,11.00
2018-10-02T11:20:42.193Z,11.20
2018-10-02T11:21:42.206Z,11.20
2018-10-02T11:22:42.220Z,11.30
2018-10-02T11:23:42.234Z,11.70
2018-10-02T11:24:42.255Z,11.10
2018-10-02T11:25:42.292Z,13.80
2018-10-02T11:26:42.336Z,10.60
2018-10-02T11:27:42.295Z,13.60
2018-10-02T11:28:42.299Z,12.30
2018-10-02T11:29:42.437Z,12.00
2018-10-02T11:30:42.325Z,12.60
2018-10-02T11:31:42.660Z,11.90
2018-10-02T11:32:42.352Z,11.40
2018-10-02T11:33:42.388Z,11.70
2018-10-02T11:34:42.463Z,11.90
2018-10-02T11:35:42.393Z,11.90
2018-10-02T11:36:42.419Z,12.50
2018-10-02T11:37:42.476Z,13.00
2018-10-02T11:38:42.433Z,12.80
2018-10-02T11:39:42.513Z,12.30
2018-10-02T11:40:42.549Z,14.20
2018-10-02T11:41:42.486Z,12.80
2018-10-02T11:42:42.535Z,12.30
2018-10-02T11:43:42.668Z,12.50
2018-10-02T11:44:42.581Z,13.00
2018-10-02T11:45:42.530Z,12.90
2018-10-02T11:46:42.534Z,13.00
2018-10-02T11:47:42.560Z,12.50
2018-10-02T11:48:42.573Z,12.90
2018-10-02T11:49:42.660Z,13.10
2018-10-02T11:50:42.599Z,13.10
2018-10-02T11:51:42.618Z,12.30
2018-10-02T11:52:42.625Z,13.20
2018-10-02T11:53:42.628Z,14.60
2018-10-02T11:54:42.641Z,13.40
2018-10-02T11:55:42.670Z,13.80
2018-10-02T11:56:42.670Z,13.80
2018-10-02T11:57:42.681Z,15.20
2018-10-02T11:58:42.703Z,14.70
2018-10-02T11:59:42.949Z,14.80
2018-10-02T12:00:42.786Z,14.90
2018-10-02T12:01:42.735Z,14.00
2018-10-02T12:02:42.881Z,14.80
2018-10-02T12:03:42.775Z,15.20
2018-10-02T12:05:42.788Z,15.60
2018-10-02T12:06:42.868Z,15.20
2018-10-02T12:07:42.817Z,14.50
2018-10-02T12:08:42.915Z,14.80
2018-10-02T12:09:42.950Z,15.60
2018-10-02T12:10:42.857Z,16.60
2018-10-02T12:11:43.043Z,16.30
2018-10-02T12:12:42.979Z,16.70
2018-10-02T12:13:43.633Z,16.60
2018-10-02T12:14:43.074Z,15.60
2018-10-02T12:16:42.938Z,16.50
2018-10-02T12:17:42.960Z,16.50
2018-10-02T12:18:42.994Z,15.70
2018-10-02T12:19:43.102Z,16.60
2018-10-02T12:20:43.002Z,15.90
2018-10-02T12:21:43.159Z,16.90
2018-10-02T12:22:43.015Z,16.30
2018-10-02T12:23:43.095Z,16.50
2018-10-02T12:24:43.052Z,16.10
2018-10-02T12:26:43.409Z,16.30
2018-10-02T12:27:43.547Z,16.60
2018-10-02T12:28:43.095Z,16.60
2018-10-02T12:29:43.108Z,16.80
2018-10-02T12:30:43.127Z,16.60
2018-10-02T12:31:43.146Z,17.40
2018-10-02T12:32:43.157Z,16.20
2018-10-02T12:33:43.161Z,17.20
2018-10-02T12:34:43.978Z,16.90
2018-10-02T12:35:43.192Z,17.40
2018-10-02T12:36:43.254Z,17.50
2018-10-02T12:37:43.224Z,18.20
2018-10-02T12:38:43.357Z,17.10
2018-10-02T12:40:43.262Z,18.20
2018-10-02T12:41:43.282Z,17.40
2018-10-02T12:42:43.284Z,18.20
2018-10-02T12:43:44.102Z,18.60
2018-10-02T12:44:43.387Z,16.80
2018-10-02T12:45:43.374Z,18.20
2018-10-02T12:47:43.410Z,17.20
2018-10-02T12:48:43.454Z,17.20
2018-10-02T12:49:43.539Z,16.20
2018-10-02T12:50:43.402Z,15.90
2018-10-02T12:51:43.507Z,15.90
2018-10-02T12:52:43.588Z,14.40
2018-10-02T12:53:43.436Z,15.40
2018-10-02T12:54:43.457Z,15.40
2018-10-02T12:55:43.477Z,15.40
2018-10-02T12:56:43.519Z,13.30
2018-10-02T12:57:43.521Z,13.00
2018-10-02T12:58:43.505Z,12.70
2018-10-02T12:59:43.517Z,13.70
2018-10-02T13:00:43.531Z,14.00
2018-10-02T13:01:43.563Z,13.60
2018-10-02T13:02:43.761Z,13.30
2018-10-02T13:03:43.592Z,13.40
2018-10-02T13:04:44.426Z,13.60
2018-10-02T13:05:43.609Z,12.30
2018-10-02T13:06:44.661Z,10.50
2018-10-02T13:07:43.719Z,11.40
2018-10-02T13:08:43.712Z,11.90
2018-10-02T13:09:44.691Z,11.80
2018-10-02T13:10:43.679Z,11.40
2018-10-02T13:11:43.687Z,11.60
2018-10-02T13:12:43.751Z,11.00
2018-10-02T13:13:43.718Z,10.50
2018-10-02T13:14:43.726Z,10.60
2018-10-02T13:15:43.755Z,8.90
2018-10-02T13:16:43.788Z,9.30
2018-10-02T13:17:43.786Z,9.70
2018-10-02T13:19:43.811Z,10.10
2018-10-02T13:20:43.805Z,10.10
2018-10-02T13:21:43.851Z,10.40
2018-10-02T13:22:43.834Z,10.30
2018-10-02T13:23:43.847Z,9.70
2018-10-02T13:24:43.884Z,9.90